Impacts METAR Board
IDs:

KBWI - Baltimore-Washington, MD, US

Updated at: 2100 UTC 06 Dec 2019
Potential Impact None Slight Moderate High
Time 06/09Z 06/10Z 06/11Z 06/12Z 06/13Z 06/14Z 06/15Z 06/16Z 06/17Z 06/18Z 06/19Z 06/20Z 06/21Z
Temp33 31 31 29 32 39 43 49 53 55 54 54 52
Dewpt23 24 24 23 25 27 29 30 25 25 25 26 27
Altim30.16 30.16 30.16 30.16 30.15 30.15 30.15 30.10 30.05 30.03 30.01 30.00 30.02
VIS10 10 10 10 10 10 10 10 10 10 10 10 10
CIG-- 180 -- -- -- 120 160 160 160 110 120 100 90
CoverSCTBKNSCTSCTSCTBKNBKNBKNOVCOVCOVCOVCOVC
FltCatVFRVFRVFRVFRVFRVFRVFRVFRVFRVFRVFRVFRVFR
WX--------------------------
WDir000002202000210220230220250
WSpd0 0 0 0 0 6 6 6 11 13 8 7 8
WGst-- -- -- -- -- -- -- -- 17 17 -- -- --
Raw hourly METARs
KBWI 060854Z 00000KT 10SM FEW120 SCT180 SCT250 01/M05 A3016 RMK AO2 SLP215 T00061050 58005 $
KBWI 060954Z 00000KT 10SM FEW120 BKN180 BKN250 M01/M04 A3016 RMK AO2 SLP216 T10061044 $
KBWI 061054Z 00000KT 10SM SCT180 SCT250 M01/M04 A3016 RMK AO2 SLP214 T10061044 $
KBWI 061154Z 00000KT 10SM FEW120 SCT180 SCT250 M02/M05 A3016 RMK AO2 SLP214 T10171050 10011 21017 55001 $
KBWI 061254Z 00000KT 10SM SCT120 SCT250 00/M04 A3015 RMK AO2 SLP211 T00001039
KBWI 061354Z 22006KT 10SM BKN120 BKN160 BKN250 04/M03 A3015 RMK AO2 SLP209 T00391028
KBWI 061454Z 20006KT 10SM SCT120 BKN160 BKN250 06/M02 A3015 RMK AO2 SLP208 T00611017 56005
KBWI 061554Z VRB06KT 10SM SCT100 BKN160 BKN250 09/M01 A3010 RMK AO2 SLP194 T00941011
KBWI 061654Z 21011G17KT 10SM SCT100 BKN160 OVC250 12/M04 A3005 RMK AO2 SLP177 T01171039
KBWI 061754Z 22013G17KT 10SM FEW080 BKN110 BKN160 OVC250 13/M04 A3003 RMK AO2 SLP168 T01281039 10128 21022 56040
KBWI 061854Z 23008KT 10SM SCT090 BKN120 OVC160 12/M04 A3001 RMK AO2 SLP162 VIRGA NW-N T01221039
KBWI 061954Z 22007KT 190V260 10SM SCT080 BKN100 OVC160 12/M03 A3000 RMK AO2 SLP160 T01221033
KBWI 062054Z 25008KT 10SM SCT070 BKN090 OVC160 11/M03 A3002 RMK AO2 SLP167 T01111028 55001



Page loaded:  21:10 UTC  |   01:10 PM Pacific  |   02:10 PM Mountain  |   03:10 PM Central  |   04:10 PM Eastern

 

ADVISORIES

FORECASTS

FORECASTS

OBSERVATIONS

USER TOOLS

ABOUT US